sensor_id;sensor_type;location;lat;lon;timestamp;temperature;humidity
27940;DHT22;15275;51.716;14.324;2023-06-10T00:01:57;22.90;62.20
27940;DHT22;15275;51.716;14.324;2023-06-10T00:04:23;22.90;62.40
27940;DHT22;15275;51.716;14.324;2023-06-10T00:06:49;22.80;62.50
27940;DHT22;15275;51.716;14.324;2023-06-10T00:09:16;22.80;62.60
27940;DHT22;15275;51.716;14.324;2023-06-10T00:11:42;22.70;62.70
27940;DHT22;15275;51.716;14.324;2023-06-10T00:14:08;22.70;62.80
27940;DHT22;15275;51.716;14.324;2023-06-10T00:16:34;22.70;62.90
27940;DHT22;15275;51.716;14.324;2023-06-10T00:19:02;22.70;63.00
27940;DHT22;15275;51.716;14.324;2023-06-10T00:21:30;22.60;63.10
27940;DHT22;15275;51.716;14.324;2023-06-10T00:24:11;22.60;63.20
27940;DHT22;15275;51.716;14.324;2023-06-10T00:26:41;22.60;63.30
27940;DHT22;15275;51.716;14.324;2023-06-10T00:29:07;22.60;63.60
27940;DHT22;15275;51.716;14.324;2023-06-10T00:31:37;22.50;63.50
27940;DHT22;15275;51.716;14.324;2023-06-10T00:34:03;22.50;63.60
27940;DHT22;15275;51.716;14.324;2023-06-10T00:36:29;22.50;63.50
27940;DHT22;15275;51.716;14.324;2023-06-10T00:38:56;22.50;63.60
27940;DHT22;15275;51.716;14.324;2023-06-10T00:41:22;22.40;63.60
27940;DHT22;15275;51.716;14.324;2023-06-10T00:43:48;22.40;63.90
27940;DHT22;15275;51.716;14.324;2023-06-10T00:46:14;22.40;63.80
27940;DHT22;15275;51.716;14.324;2023-06-10T00:48:42;22.40;63.90
27940;DHT22;15275;51.716;14.324;2023-06-10T00:51:09;22.30;63.90
27940;DHT22;15275;51.716;14.324;2023-06-10T00:53:39;22.30;64.00
27940;DHT22;15275;51.716;14.324;2023-06-10T00:56:07;22.30;64.20
27940;DHT22;15275;51.716;14.324;2023-06-10T00:58:33;22.20;64.00
27940;DHT22;15275;51.716;14.324;2023-06-10T01:00:59;22.20;64.10
27940;DHT22;15275;51.716;14.324;2023-06-10T01:03:26;22.20;64.20
27940;DHT22;15275;51.716;14.324;2023-06-10T01:06:18;22.10;64.30
27940;DHT22;15275;51.716;14.324;2023-06-10T01:09:13;22.10;64.80
27940;DHT22;15275;51.716;14.324;2023-06-10T01:14:59;22.00;64.50
27940;DHT22;15275;51.716;14.324;2023-06-10T01:17:26;21.90;64.50
27940;DHT22;15275;51.716;14.324;2023-06-10T01:19:56;21.90;64.40
27940;DHT22;15275;51.716;14.324;2023-06-10T01:22:26;21.90;64.80
27940;DHT22;15275;51.716;14.324;2023-06-10T01:25:02;21.80;64.90
27940;DHT22;15275;51.716;14.324;2023-06-10T01:27:33;21.70;64.70
27940;DHT22;15275;51.716;14.324;2023-06-10T01:30:16;21.70;64.90
27940;DHT22;15275;51.716;14.324;2023-06-10T01:32:50;21.60;65.90
27940;DHT22;15275;51.716;14.324;2023-06-10T01:35:17;21.60;65.70
27940;DHT22;15275;51.716;14.324;2023-06-10T01:37:46;21.60;65.30
27940;DHT22;15275;51.716;14.324;2023-06-10T01:40:13;21.50;65.60
27940;DHT22;15275;51.716;14.324;2023-06-10T01:42:39;21.50;65.60
27940;DHT22;15275;51.716;14.324;2023-06-10T01:45:06;21.40;65.60
27940;DHT22;15275;51.716;14.324;2023-06-10T01:47:32;21.40;65.90
27940;DHT22;15275;51.716;14.324;2023-06-10T01:49:57;21.40;65.90
27940;DHT22;15275;51.716;14.324;2023-06-10T01:52:23;21.30;66.00
27940;DHT22;15275;51.716;14.324;2023-06-10T01:54:50;21.30;66.10
27940;DHT22;15275;51.716;14.324;2023-06-10T01:57:16;21.30;66.20
27940;DHT22;15275;51.716;14.324;2023-06-10T01:59:42;21.20;66.30
27940;DHT22;15275;51.716;14.324;2023-06-10T02:02:10;21.20;66.50
27940;DHT22;15275;51.716;14.324;2023-06-10T02:04:36;21.20;66.70
27940;DHT22;15275;51.716;14.324;2023-06-10T02:07:02;21.20;66.80
27940;DHT22;15275;51.716;14.324;2023-06-10T02:09:30;21.10;66.70
27940;DHT22;15275;51.716;14.324;2023-06-10T02:11:57;21.10;66.90
27940;DHT22;15275;51.716;14.324;2023-06-10T02:14:23;21.10;67.00
27940;DHT22;15275;51.716;14.324;2023-06-10T02:16:48;21.00;66.90
27940;DHT22;15275;51.716;14.324;2023-06-10T02:19:14;21.00;66.90
27940;DHT22;15275;51.716;14.324;2023-06-10T02:21:40;20.90;67.10
27940;DHT22;15275;51.716;14.324;2023-06-10T02:24:06;20.90;67.20
27940;DHT22;15275;51.716;14.324;2023-06-10T02:26:32;20.90;67.30
27940;DHT22;15275;51.716;14.324;2023-06-10T02:28:58;20.80;67.40
27940;DHT22;15275;51.716;14.324;2023-06-10T02:31:24;20.70;67.40
27940;DHT22;15275;51.716;14.324;2023-06-10T02:33:50;20.70;67.50
27940;DHT22;15275;51.716;14.324;2023-06-10T02:36:16;20.60;67.50
27940;DHT22;15275;51.716;14.324;2023-06-10T02:38:42;20.60;67.60
27940;DHT22;15275;51.716;14.324;2023-06-10T02:41:08;20.60;67.70
27940;DHT22;15275;51.716;14.324;2023-06-10T02:43:33;20.50;67.80
27940;DHT22;15275;51.716;14.324;2023-06-10T02:46:00;20.40;67.90
27940;DHT22;15275;51.716;14.324;2023-06-10T02:48:27;20.40;67.80
27940;DHT22;15275;51.716;14.324;2023-06-10T02:50:53;20.30;68.00
27940;DHT22;15275;51.716;14.324;2023-06-10T02:53:19;20.30;68.10
27940;DHT22;15275;51.716;14.324;2023-06-10T02:55:45;20.20;68.10
27940;DHT22;15275;51.716;14.324;2023-06-10T02:58:10;20.20;68.40
27940;DHT22;15275;51.716;14.324;2023-06-10T03:00:36;20.10;68.50
27940;DHT22;15275;51.716;14.324;2023-06-10T03:03:03;20.10;68.60
27940;DHT22;15275;51.716;14.324;2023-06-10T03:05:30;20.10;68.80
27940;DHT22;15275;51.716;14.324;2023-06-10T03:07:56;20.00;68.80
27940;DHT22;15275;51.716;14.324;2023-06-10T03:10:21;20.00;69.10
27940;DHT22;15275;51.716;14.324;2023-06-10T03:12:47;20.00;69.20
27940;DHT22;15275;51.716;14.324;2023-06-10T03:15:13;20.00;69.30
27940;DHT22;15275;51.716;14.324;2023-06-10T03:17:40;19.90;69.40
27940;DHT22;15275;51.716;14.324;2023-06-10T03:20:06;19.90;69.50
27940;DHT22;15275;51.716;14.324;2023-06-10T03:22:34;19.90;69.60
27940;DHT22;15275;51.716;14.324;2023-06-10T03:25:00;19.90;69.60
27940;DHT22;15275;51.716;14.324;2023-06-10T03:27:26;19.90;69.70
27940;DHT22;15275;51.716;14.324;2023-06-10T03:29:52;19.90;69.80
27940;DHT22;15275;51.716;14.324;2023-06-10T03:32:17;19.90;69.90
27940;DHT22;15275;51.716;14.324;2023-06-10T03:34:44;20.00;69.90
27940;DHT22;15275;51.716;14.324;2023-06-10T03:37:13;20.00;70.00
27940;DHT22;15275;51.716;14.324;2023-06-10T03:39:39;20.00;70.10
27940;DHT22;15275;51.716;14.324;2023-06-10T03:42:05;20.00;70.10
27940;DHT22;15275;51.716;14.324;2023-06-10T03:44:31;20.00;70.30
27940;DHT22;15275;51.716;14.324;2023-06-10T03:46:57;20.00;70.30
27940;DHT22;15275;51.716;14.324;2023-06-10T03:49:25;20.00;70.30
27940;DHT22;15275;51.716;14.324;2023-06-10T03:51:52;20.10;70.50
27940;DHT22;15275;51.716;14.324;2023-06-10T03:54:19;20.10;70.60
27940;DHT22;15275;51.716;14.324;2023-06-10T03:56:44;20.20;70.70
27940;DHT22;15275;51.716;14.324;2023-06-10T03:59:10;20.20;70.70
27940;DHT22;15275;51.716;14.324;2023-06-10T04:01:36;20.20;70.70
27940;DHT22;15275;51.716;14.324;2023-06-10T04:04:03;20.30;70.70
27940;DHT22;15275;51.716;14.324;2023-06-10T04:06:29;20.30;70.70
27940;DHT22;15275;51.716;14.324;2023-06-10T04:08:55;20.30;70.60
27940;DHT22;15275;51.716;14.324;2023-06-10T04:11:25;20.40;70.60
27940;DHT22;15275;51.716;14.324;2023-06-10T04:13:51;20.50;70.60
27940;DHT22;15275;51.716;14.324;2023-06-10T04:16:17;20.50;70.50
27940;DHT22;15275;51.716;14.324;2023-06-10T04:18:43;20.60;70.50
27940;DHT22;15275;51.716;14.324;2023-06-10T04:21:09;20.60;70.50
27940;DHT22;15275;51.716;14.324;2023-06-10T04:23:35;20.70;70.50
27940;DHT22;15275;51.716;14.324;2023-06-10T04:26:02;20.70;70.50
27940;DHT22;15275;51.716;14.324;2023-06-10T04:28:28;20.80;70.40
27940;DHT22;15275;51.716;14.324;2023-06-10T04:30:54;20.90;70.40
27940;DHT22;15275;51.716;14.324;2023-06-10T04:33:20;20.90;70.30
27940;DHT22;15275;51.716;14.324;2023-06-10T04:35:46;21.00;70.30
27940;DHT22;15275;51.716;14.324;2023-06-10T04:38:13;21.20;70.40
27940;DHT22;15275;51.716;14.324;2023-06-10T04:40:39;21.30;70.40
27940;DHT22;15275;51.716;14.324;2023-06-10T04:43:05;21.50;70.30
27940;DHT22;15275;51.716;14.324;2023-06-10T04:45:31;21.70;69.90
27940;DHT22;15275;51.716;14.324;2023-06-10T04:47:57;21.90;70.00
27940;DHT22;15275;51.716;14.324;2023-06-10T04:50:23;22.00;69.50
27940;DHT22;15275;51.716;14.324;2023-06-10T04:52:49;22.10;69.10
27940;DHT22;15275;51.716;14.324;2023-06-10T04:55:16;22.20;68.70
27940;DHT22;15275;51.716;14.324;2023-06-10T04:57:42;22.30;68.50
27940;DHT22;15275;51.716;14.324;2023-06-10T05:00:08;22.40;68.40
27940;DHT22;15275;51.716;14.324;2023-06-10T05:02:34;22.50;68.50
27940;DHT22;15275;51.716;14.324;2023-06-10T05:05:00;22.70;68.40
27940;DHT22;15275;51.716;14.324;2023-06-10T05:07:29;22.90;68.60
27940;DHT22;15275;51.716;14.324;2023-06-10T05:09:55;23.20;68.60
27940;DHT22;15275;51.716;14.324;2023-06-10T05:12:21;23.50;68.10
27940;DHT22;15275;51.716;14.324;2023-06-10T05:14:46;23.80;67.50
27940;DHT22;15275;51.716;14.324;2023-06-10T05:17:12;24.10;66.90
27940;DHT22;15275;51.716;14.324;2023-06-10T05:19:38;24.30;65.90
27940;DHT22;15275;51.716;14.324;2023-06-10T05:22:04;24.40;65.20
27940;DHT22;15275;51.716;14.324;2023-06-10T05:24:30;24.50;64.60
27940;DHT22;15275;51.716;14.324;2023-06-10T05:26:56;24.60;64.30
27940;DHT22;15275;51.716;14.324;2023-06-10T05:29:22;24.60;64.10
27940;DHT22;15275;51.716;14.324;2023-06-10T05:31:48;24.60;63.70
27940;DHT22;15275;51.716;14.324;2023-06-10T05:34:14;24.60;63.40
27940;DHT22;15275;51.716;14.324;2023-06-10T05:36:40;24.60;63.30
27940;DHT22;15275;51.716;14.324;2023-06-10T05:39:05;24.50;63.40
27940;DHT22;15275;51.716;14.324;2023-06-10T05:41:31;24.50;63.70
27940;DHT22;15275;51.716;14.324;2023-06-10T05:43:57;24.50;64.30
27940;DHT22;15275;51.716;14.324;2023-06-10T05:46:23;24.50;63.80
27940;DHT22;15275;51.716;14.324;2023-06-10T05:48:49;24.50;63.50
27940;DHT22;15275;51.716;14.324;2023-06-10T05:51:15;24.50;63.30
27940;DHT22;15275;51.716;14.324;2023-06-10T05:53:40;24.50;63.40
27940;DHT22;15275;51.716;14.324;2023-06-10T05:56:06;24.40;63.40
27940;DHT22;15275;51.716;14.324;2023-06-10T05:58:32;24.40;63.70
27940;DHT22;15275;51.716;14.324;2023-06-10T06:00:58;24.40;63.60
27940;DHT22;15275;51.716;14.324;2023-06-10T06:03:25;24.40;63.50
27940;DHT22;15275;51.716;14.324;2023-06-10T06:05:51;24.40;63.30
27940;DHT22;15275;51.716;14.324;2023-06-10T06:08:16;24.40;63.10
27940;DHT22;15275;51.716;14.324;2023-06-10T06:10:45;24.40;63.00
27940;DHT22;15275;51.716;14.324;2023-06-10T06:13:11;24.40;63.30
27940;DHT22;15275;51.716;14.324;2023-06-10T06:15:37;24.40;63.60
27940;DHT22;15275;51.716;14.324;2023-06-10T06:18:02;24.50;63.50
27940;DHT22;15275;51.716;14.324;2023-06-10T06:20:28;24.50;63.50
27940;DHT22;15275;51.716;14.324;2023-06-10T06:22:54;24.60;63.30
27940;DHT22;15275;51.716;14.324;2023-06-10T06:25:20;24.60;63.20
27940;DHT22;15275;51.716;14.324;2023-06-10T06:27:46;24.70;63.40
27940;DHT22;15275;51.716;14.324;2023-06-10T06:30:12;24.80;63.10
27940;DHT22;15275;51.716;14.324;2023-06-10T06:32:38;24.80;63.30
27940;DHT22;15275;51.716;14.324;2023-06-10T06:35:04;24.90;62.90
27940;DHT22;15275;51.716;14.324;2023-06-10T06:37:33;24.90;62.70
27940;DHT22;15275;51.716;14.324;2023-06-10T06:39:59;25.00;62.30
27940;DHT22;15275;51.716;14.324;2023-06-10T06:42:25;25.10;62.20
27940;DHT22;15275;51.716;14.324;2023-06-10T06:44:51;25.20;62.30
27940;DHT22;15275;51.716;14.324;2023-06-10T06:47:17;25.30;62.10
27940;DHT22;15275;51.716;14.324;2023-06-10T06:49:48;25.30;61.60
27940;DHT22;15275;51.716;14.324;2023-06-10T06:52:15;25.40;61.50
27940;DHT22;15275;51.716;14.324;2023-06-10T06:54:41;25.40;61.50
27940;DHT22;15275;51.716;14.324;2023-06-10T06:57:07;25.50;61.30
27940;DHT22;15275;51.716;14.324;2023-06-10T06:59:33;25.50;61.20
27940;DHT22;15275;51.716;14.324;2023-06-10T07:01:59;25.50;61.30
27940;DHT22;15275;51.716;14.324;2023-06-10T07:04:25;25.60;61.00
27940;DHT22;15275;51.716;14.324;2023-06-10T07:06:51;25.60;60.80
27940;DHT22;15275;51.716;14.324;2023-06-10T07:09:17;25.60;61.10
27940;DHT22;15275;51.716;14.324;2023-06-10T07:11:42;25.70;61.10
27940;DHT22;15275;51.716;14.324;2023-06-10T07:14:08;25.80;61.00
27940;DHT22;15275;51.716;14.324;2023-06-10T07:16:34;25.80;60.60
27940;DHT22;15275;51.716;14.324;2023-06-10T07:19:00;25.90;60.20
27940;DHT22;15275;51.716;14.324;2023-06-10T07:21:25;25.90;60.00
27940;DHT22;15275;51.716;14.324;2023-06-10T07:23:53;26.00;60.10
27940;DHT22;15275;51.716;14.324;2023-06-10T07:26:21;26.00;60.10
27940;DHT22;15275;51.716;14.324;2023-06-10T07:28:48;26.10;60.20
27940;DHT22;15275;51.716;14.324;2023-06-10T07:31:13;26.20;59.80
27940;DHT22;15275;51.716;14.324;2023-06-10T07:33:40;26.20;59.70
27940;DHT22;15275;51.716;14.324;2023-06-10T07:36:06;26.30;59.50
27940;DHT22;15275;51.716;14.324;2023-06-10T07:38:32;26.40;59.50
27940;DHT22;15275;51.716;14.324;2023-06-10T07:40:58;26.40;59.40
27940;DHT22;15275;51.716;14.324;2023-06-10T07:43:24;26.50;59.30
27940;DHT22;15275;51.716;14.324;2023-06-10T07:45:50;26.60;59.40
27940;DHT22;15275;51.716;14.324;2023-06-10T07:48:16;26.60;59.50
27940;DHT22;15275;51.716;14.324;2023-06-10T07:50:41;26.70;59.00
27940;DHT22;15275;51.716;14.324;2023-06-10T07:53:07;26.80;58.90
27940;DHT22;15275;51.716;14.324;2023-06-10T07:55:33;26.90;58.50
27940;DHT22;15275;51.716;14.324;2023-06-10T07:57:59;27.00;58.70
27940;DHT22;15275;51.716;14.324;2023-06-10T08:00:25;27.00;58.90
27940;DHT22;15275;51.716;14.324;2023-06-10T08:02:50;27.10;58.60
27940;DHT22;15275;51.716;14.324;2023-06-10T08:05:17;27.20;58.60
27940;DHT22;15275;51.716;14.324;2023-06-10T08:07:44;27.30;58.60
27940;DHT22;15275;51.716;14.324;2023-06-10T08:10:10;27.40;58.40
27940;DHT22;15275;51.716;14.324;2023-06-10T08:12:36;27.40;57.90
27940;DHT22;15275;51.716;14.324;2023-06-10T08:15:03;27.50;57.60
27940;DHT22;15275;51.716;14.324;2023-06-10T08:17:33;27.60;57.60
27940;DHT22;15275;51.716;14.324;2023-06-10T08:19:59;27.70;57.30
27940;DHT22;15275;51.716;14.324;2023-06-10T08:22:24;27.70;57.30
27940;DHT22;15275;51.716;14.324;2023-06-10T08:24:50;27.80;56.90
27940;DHT22;15275;51.716;14.324;2023-06-10T08:27:16;27.80;56.80
27940;DHT22;15275;51.716;14.324;2023-06-10T08:29:42;27.90;56.90
27940;DHT22;15275;51.716;14.324;2023-06-10T08:32:08;27.90;57.10
27940;DHT22;15275;51.716;14.324;2023-06-10T08:34:34;27.90;57.10
27940;DHT22;15275;51.716;14.324;2023-06-10T08:37:04;28.00;57.10
27940;DHT22;15275;51.716;14.324;2023-06-10T08:39:30;28.10;56.80
27940;DHT22;15275;51.716;14.324;2023-06-10T08:42:15;28.10;56.30
27940;DHT22;15275;51.716;14.324;2023-06-10T08:44:50;28.20;55.60
27940;DHT22;15275;51.716;14.324;2023-06-10T08:47:23;28.20;55.80
27940;DHT22;15275;51.716;14.324;2023-06-10T08:49:51;28.30;55.70
27940;DHT22;15275;51.716;14.324;2023-06-10T08:52:22;28.30;55.60
27940;DHT22;15275;51.716;14.324;2023-06-10T08:54:52;28.30;55.80
27940;DHT22;15275;51.716;14.324;2023-06-10T08:57:20;28.30;56.00
27940;DHT22;15275;51.716;14.324;2023-06-10T08:59:47;28.30;55.80
27940;DHT22;15275;51.716;14.324;2023-06-10T09:02:15;28.40;55.70
27940;DHT22;15275;51.716;14.324;2023-06-10T09:04:46;28.40;55.50
27940;DHT22;15275;51.716;14.324;2023-06-10T09:07:15;28.50;55.80
27940;DHT22;15275;51.716;14.324;2023-06-10T09:09:45;28.50;55.60
27940;DHT22;15275;51.716;14.324;2023-06-10T09:12:13;28.60;55.20
27940;DHT22;15275;51.716;14.324;2023-06-10T09:14:39;28.70;54.90
27940;DHT22;15275;51.716;14.324;2023-06-10T09:17:05;28.70;55.00
27940;DHT22;15275;51.716;14.324;2023-06-10T09:19:31;28.80;54.70
27940;DHT22;15275;51.716;14.324;2023-06-10T09:21:58;28.80;54.50
27940;DHT22;15275;51.716;14.324;2023-06-10T09:24:24;28.90;54.00
27940;DHT22;15275;51.716;14.324;2023-06-10T09:27:01;28.90;54.20
27940;DHT22;15275;51.716;14.324;2023-06-10T09:29:46;29.00;54.20
27940;DHT22;15275;51.716;14.324;2023-06-10T09:32:19;29.10;52.10
27940;DHT22;15275;51.716;14.324;2023-06-10T09:34:46;29.10;52.60
27940;DHT22;15275;51.716;14.324;2023-06-10T09:37:13;29.10;52.40
27940;DHT22;15275;51.716;14.324;2023-06-10T09:39:45;29.20;52.30
27940;DHT22;15275;51.716;14.324;2023-06-10T09:42:36;29.20;52.30
27940;DHT22;15275;51.716;14.324;2023-06-10T09:45:04;29.20;51.90
27940;DHT22;15275;51.716;14.324;2023-06-10T09:47:31;29.30;51.70
27940;DHT22;15275;51.716;14.324;2023-06-10T09:49:57;29.30;51.50
27940;DHT22;15275;51.716;14.324;2023-06-10T09:52:24;29.30;51.10
27940;DHT22;15275;51.716;14.324;2023-06-10T09:54:58;29.30;50.70
27940;DHT22;15275;51.716;14.324;2023-06-10T09:57:25;29.30;51.40
27940;DHT22;15275;51.716;14.324;2023-06-10T09:59:54;29.30;51.80
27940;DHT22;15275;51.716;14.324;2023-06-10T10:02:21;29.30;50.90
27940;DHT22;15275;51.716;14.324;2023-06-10T10:04:47;29.30;50.80
27940;DHT22;15275;51.716;14.324;2023-06-10T10:07:13;29.40;50.90
27940;DHT22;15275;51.716;14.324;2023-06-10T10:09:40;29.50;50.60
27940;DHT22;15275;51.716;14.324;2023-06-10T10:12:13;29.60;50.10
27940;DHT22;15275;51.716;14.324;2023-06-10T10:14:46;29.60;49.70
27940;DHT22;15275;51.716;14.324;2023-06-10T10:17:15;29.70;50.10
27940;DHT22;15275;51.716;14.324;2023-06-10T10:19:50;29.70;50.30
27940;DHT22;15275;51.716;14.324;2023-06-10T10:22:24;29.80;49.20
27940;DHT22;15275;51.716;14.324;2023-06-10T10:24:56;29.90;50.10
27940;DHT22;15275;51.716;14.324;2023-06-10T10:27:33;30.00;49.50
27940;DHT22;15275;51.716;14.324;2023-06-10T10:30:02;30.10;48.90
27940;DHT22;15275;51.716;14.324;2023-06-10T10:32:57;30.10;48.90
27940;DHT22;15275;51.716;14.324;2023-06-10T10:35:27;30.20;48.50
27940;DHT22;15275;51.716;14.324;2023-06-10T10:37:54;30.30;48.90
27940;DHT22;15275;51.716;14.324;2023-06-10T10:40:25;30.30;48.50
27940;DHT22;15275;51.716;14.324;2023-06-10T10:42:53;30.40;48.30
27940;DHT22;15275;51.716;14.324;2023-06-10T10:45:21;30.50;49.00
27940;DHT22;15275;51.716;14.324;2023-06-10T10:47:52;30.50;48.40
27940;DHT22;15275;51.716;14.324;2023-06-10T10:50:20;30.60;47.70
27940;DHT22;15275;51.716;14.324;2023-06-10T10:55:20;30.60;47.10
27940;DHT22;15275;51.716;14.324;2023-06-10T10:58:06;30.60;47.60
27940;DHT22;15275;51.716;14.324;2023-06-10T11:00:37;30.70;47.60
27940;DHT22;15275;51.716;14.324;2023-06-10T11:03:14;30.70;47.90
27940;DHT22;15275;51.716;14.324;2023-06-10T11:05:47;30.90;47.20
27940;DHT22;15275;51.716;14.324;2023-06-10T11:11:00;31.10;46.70
27940;DHT22;15275;51.716;14.324;2023-06-10T11:13:27;31.10;46.70
27940;DHT22;15275;51.716;14.324;2023-06-10T11:15:57;31.20;46.20
27940;DHT22;15275;51.716;14.324;2023-06-10T11:18:30;31.20;45.30
27940;DHT22;15275;51.716;14.324;2023-06-10T11:21:05;31.20;45.80
27940;DHT22;15275;51.716;14.324;2023-06-10T11:23:34;31.20;45.80
27940;DHT22;15275;51.716;14.324;2023-06-10T11:31:27;31.30;45.70
27940;DHT22;15275;51.716;14.324;2023-06-10T11:34:02;31.30;45.10
27940;DHT22;15275;51.716;14.324;2023-06-10T11:36:31;31.40;45.20
27940;DHT22;15275;51.716;14.324;2023-06-10T11:38:59;31.40;45.20
27940;DHT22;15275;51.716;14.324;2023-06-10T11:41:30;31.50;45.30
27940;DHT22;15275;51.716;14.324;2023-06-10T11:44:00;31.60;44.30
27940;DHT22;15275;51.716;14.324;2023-06-10T11:46:30;31.60;44.30
27940;DHT22;15275;51.716;14.324;2023-06-10T11:48:58;31.60;45.30
27940;DHT22;15275;51.716;14.324;2023-06-10T11:51:32;31.70;44.30
27940;DHT22;15275;51.716;14.324;2023-06-10T11:53:59;31.70;44.00
27940;DHT22;15275;51.716;14.324;2023-06-10T11:56:26;31.70;44.30
27940;DHT22;15275;51.716;14.324;2023-06-10T11:58:55;31.70;44.10
27940;DHT22;15275;51.716;14.324;2023-06-10T12:01:24;31.70;44.50
27940;DHT22;15275;51.716;14.324;2023-06-10T12:04:17;31.70;44.00
27940;DHT22;15275;51.716;14.324;2023-06-10T12:06:51;31.70;43.50
27940;DHT22;15275;51.716;14.324;2023-06-10T12:09:29;31.70;43.20
27940;DHT22;15275;51.716;14.324;2023-06-10T12:17:15;32.00;41.70
27940;DHT22;15275;51.716;14.324;2023-06-10T12:19:41;32.00;42.30
27940;DHT22;15275;51.716;14.324;2023-06-10T12:22:07;32.00;42.30
27940;DHT22;15275;51.716;14.324;2023-06-10T12:24:32;32.00;42.20
27940;DHT22;15275;51.716;14.324;2023-06-10T12:26:58;32.00;42.10
27940;DHT22;15275;51.716;14.324;2023-06-10T12:29:24;31.90;42.30
27940;DHT22;15275;51.716;14.324;2023-06-10T12:34:37;31.90;42.60
27940;DHT22;15275;51.716;14.324;2023-06-10T12:37:06;31.90;42.00
27940;DHT22;15275;51.716;14.324;2023-06-10T12:39:38;31.80;41.70
27940;DHT22;15275;51.716;14.324;2023-06-10T12:42:05;31.80;42.10
27940;DHT22;15275;51.716;14.324;2023-06-10T12:44:38;31.80;41.80
27940;DHT22;15275;51.716;14.324;2023-06-10T12:47:09;31.80;42.20
27940;DHT22;15275;51.716;14.324;2023-06-10T12:49:37;31.90;42.70
27940;DHT22;15275;51.716;14.324;2023-06-10T12:52:04;32.00;42.90
27940;DHT22;15275;51.716;14.324;2023-06-10T12:54:31;32.00;43.00
27940;DHT22;15275;51.716;14.324;2023-06-10T12:56:57;32.00;42.80
27940;DHT22;15275;51.716;14.324;2023-06-10T12:59:23;31.90;43.20
27940;DHT22;15275;51.716;14.324;2023-06-10T13:01:53;31.80;43.30
27940;DHT22;15275;51.716;14.324;2023-06-10T13:04:20;31.80;43.40
27940;DHT22;15275;51.716;14.324;2023-06-10T13:06:47;31.80;43.90
27940;DHT22;15275;51.716;14.324;2023-06-10T13:09:14;31.70;44.10
27940;DHT22;15275;51.716;14.324;2023-06-10T13:11:41;31.70;44.30
27940;DHT22;15275;51.716;14.324;2023-06-10T13:14:09;31.60;44.50
27940;DHT22;15275;51.716;14.324;2023-06-10T13:16:35;31.60;44.80
27940;DHT22;15275;51.716;14.324;2023-06-10T13:19:04;31.50;44.60
27940;DHT22;15275;51.716;14.324;2023-06-10T13:21:34;31.50;44.50
27940;DHT22;15275;51.716;14.324;2023-06-10T13:24:00;31.40;44.60
27940;DHT22;15275;51.716;14.324;2023-06-10T13:26:26;31.40;44.90
27940;DHT22;15275;51.716;14.324;2023-06-10T13:28:51;31.30;45.10
27940;DHT22;15275;51.716;14.324;2023-06-10T13:31:18;31.30;45.30
27940;DHT22;15275;51.716;14.324;2023-06-10T13:33:46;31.30;45.30
27940;DHT22;15275;51.716;14.324;2023-06-10T13:36:12;31.40;45.40
27940;DHT22;15275;51.716;14.324;2023-06-10T13:38:38;31.40;44.10
27940;DHT22;15275;51.716;14.324;2023-06-10T13:41:04;31.40;41.60
27940;DHT22;15275;51.716;14.324;2023-06-10T13:43:30;31.30;41.00
27940;DHT22;15275;51.716;14.324;2023-06-10T13:45:55;31.10;41.60
27940;DHT22;15275;51.716;14.324;2023-06-10T13:48:21;31.00;42.50
27940;DHT22;15275;51.716;14.324;2023-06-10T13:50:47;30.70;42.80
27940;DHT22;15275;51.716;14.324;2023-06-10T13:53:13;30.30;43.50
27940;DHT22;15275;51.716;14.324;2023-06-10T13:55:39;29.90;44.10
27940;DHT22;15275;51.716;14.324;2023-06-10T13:58:04;29.60;45.40
27940;DHT22;15275;51.716;14.324;2023-06-10T14:00:30;29.30;46.90
27940;DHT22;15275;51.716;14.324;2023-06-10T14:02:56;29.00;47.10
27940;DHT22;15275;51.716;14.324;2023-06-10T14:05:22;28.80;48.00
27940;DHT22;15275;51.716;14.324;2023-06-10T14:07:48;28.80;48.70
27940;DHT22;15275;51.716;14.324;2023-06-10T14:10:14;28.70;48.80
27940;DHT22;15275;51.716;14.324;2023-06-10T14:12:40;28.70;50.60
27940;DHT22;15275;51.716;14.324;2023-06-10T14:15:06;28.70;50.20
27940;DHT22;15275;51.716;14.324;2023-06-10T14:17:32;28.80;49.40
27940;DHT22;15275;51.716;14.324;2023-06-10T14:19:58;28.80;49.00
27940;DHT22;15275;51.716;14.324;2023-06-10T14:22:24;28.80;49.30
27940;DHT22;15275;51.716;14.324;2023-06-10T14:24:50;28.90;49.50
27940;DHT22;15275;51.716;14.324;2023-06-10T14:27:15;29.00;49.80
27940;DHT22;15275;51.716;14.324;2023-06-10T14:29:41;29.00;49.40
27940;DHT22;15275;51.716;14.324;2023-06-10T14:32:07;29.00;48.80
27940;DHT22;15275;51.716;14.324;2023-06-10T14:34:33;29.20;48.10
27940;DHT22;15275;51.716;14.324;2023-06-10T14:37:02;29.20;47.60
27940;DHT22;15275;51.716;14.324;2023-06-10T14:39:33;29.30;47.10
27940;DHT22;15275;51.716;14.324;2023-06-10T14:41:58;29.30;46.90
27940;DHT22;15275;51.716;14.324;2023-06-10T14:44:24;29.40;46.80
27940;DHT22;15275;51.716;14.324;2023-06-10T14:46:50;29.50;46.50
27940;DHT22;15275;51.716;14.324;2023-06-10T14:49:16;29.50;46.60
27940;DHT22;15275;51.716;14.324;2023-06-10T14:51:41;29.50;46.30
27940;DHT22;15275;51.716;14.324;2023-06-10T14:54:07;29.60;46.00
27940;DHT22;15275;51.716;14.324;2023-06-10T14:56:33;29.60;46.00
27940;DHT22;15275;51.716;14.324;2023-06-10T14:58:59;29.60;46.00
27940;DHT22;15275;51.716;14.324;2023-06-10T15:01:25;29.60;45.60
27940;DHT22;15275;51.716;14.324;2023-06-10T15:03:50;29.60;45.50
27940;DHT22;15275;51.716;14.324;2023-06-10T15:06:16;29.60;45.50
27940;DHT22;15275;51.716;14.324;2023-06-10T15:08:46;29.60;45.60
27940;DHT22;15275;51.716;14.324;2023-06-10T15:11:14;29.70;45.40
27940;DHT22;15275;51.716;14.324;2023-06-10T15:13:40;29.70;45.30
27940;DHT22;15275;51.716;14.324;2023-06-10T15:16:06;29.70;45.90
27940;DHT22;15275;51.716;14.324;2023-06-10T15:18:33;29.70;45.60
27940;DHT22;15275;51.716;14.324;2023-06-10T15:20:58;29.80;46.20
27940;DHT22;15275;51.716;14.324;2023-06-10T15:23:24;30.00;46.10
27940;DHT22;15275;51.716;14.324;2023-06-10T15:25:50;30.10;46.20
27940;DHT22;15275;51.716;14.324;2023-06-10T15:28:16;30.30;45.70
27940;DHT22;15275;51.716;14.324;2023-06-10T15:30:42;30.40;44.80
27940;DHT22;15275;51.716;14.324;2023-06-10T15:33:08;30.60;44.30
27940;DHT22;15275;51.716;14.324;2023-06-10T15:35:34;30.70;44.10
27940;DHT22;15275;51.716;14.324;2023-06-10T15:37:59;30.90;44.00
27940;DHT22;15275;51.716;14.324;2023-06-10T15:40:25;30.90;43.40